Cleveland, Alabama
Current Conditions -  °F | °C
As of 2:15 AM on Monday 22 Dec 2014 (Local Time) from KCMD Reporting Station
Overcast Overcast  
Wind Chill: 44°   Ceiling: 800
Heat Index: 48°   Visibility: 7mi
Dew Point: 45°   Wind: 8mph
Humidity: 90%   Direction: 120°ESE
Pressure: 29.99"   Gusts: NA
Location:  33.99°N, 86.58°W
Report Text: KCMD 220815Z AUTO 12007KT 7SM OVC008 09/07 A2999 RMK AO2 T00880073
Loading
Personal Weather Stations






























Interactive Weather Map New forecast layout! Learn more

10-Day Weather Forecast

Advertisements
Track Severe Weather on mobile